sensor_id;sensor_type;location;lat;lon;timestamp;temperature;humidity
12156;DHT22;6141;49.092;8.516;2023-08-12T00:01:10;22.30;42.10
12156;DHT22;6141;49.092;8.516;2023-08-12T00:03:38;21.90;44.10
12156;DHT22;6141;49.092;8.516;2023-08-12T00:06:06;21.90;44.10
12156;DHT22;6141;49.092;8.516;2023-08-12T00:08:35;22.50;41.30
12156;DHT22;6141;49.092;8.516;2023-08-12T00:11:03;22.60;41.50
12156;DHT22;6141;49.092;8.516;2023-08-12T00:13:32;22.40;42.40
12156;DHT22;6141;49.092;8.516;2023-08-12T00:16:00;22.40;42.40
12156;DHT22;6141;49.092;8.516;2023-08-12T00:18:28;22.40;41.70
12156;DHT22;6141;49.092;8.516;2023-08-12T00:20:56;22.80;40.00
12156;DHT22;6141;49.092;8.516;2023-08-12T00:23:26;23.10;38.80
12156;DHT22;6141;49.092;8.516;2023-08-12T00:25:57;23.30;39.00
12156;DHT22;6141;49.092;8.516;2023-08-12T00:28:26;23.00;38.70
12156;DHT22;6141;49.092;8.516;2023-08-12T00:30:55;22.60;40.70
12156;DHT22;6141;49.092;8.516;2023-08-12T00:33:23;22.00;43.60
12156;DHT22;6141;49.092;8.516;2023-08-12T00:35:52;21.50;46.00
12156;DHT22;6141;49.092;8.516;2023-08-12T00:38:20;21.50;47.00
12156;DHT22;6141;49.092;8.516;2023-08-12T00:40:48;21.70;46.40
12156;DHT22;6141;49.092;8.516;2023-08-12T00:43:16;22.10;44.30
12156;DHT22;6141;49.092;8.516;2023-08-12T00:45:44;22.20;44.40
12156;DHT22;6141;49.092;8.516;2023-08-12T00:48:14;22.20;44.40
12156;DHT22;6141;49.092;8.516;2023-08-12T00:50:44;22.20;44.40
12156;DHT22;6141;49.092;8.516;2023-08-12T00:53:13;22.40;44.50
12156;DHT22;6141;49.092;8.516;2023-08-12T00:55:42;22.70;43.10
12156;DHT22;6141;49.092;8.516;2023-08-12T00:58:10;22.70;42.70
12156;DHT22;6141;49.092;8.516;2023-08-12T01:00:40;22.70;43.10
12156;DHT22;6141;49.092;8.516;2023-08-12T01:03:09;22.70;43.50
12156;DHT22;6141;49.092;8.516;2023-08-12T01:05:40;22.70;43.60
12156;DHT22;6141;49.092;8.516;2023-08-12T01:08:09;22.60;43.30
12156;DHT22;6141;49.092;8.516;2023-08-12T01:10:39;22.80;42.90
12156;DHT22;6141;49.092;8.516;2023-08-12T01:13:19;22.80;42.90
12156;DHT22;6141;49.092;8.516;2023-08-12T01:15:53;22.70;43.40
12156;DHT22;6141;49.092;8.516;2023-08-12T01:18:23;22.40;44.60
12156;DHT22;6141;49.092;8.516;2023-08-12T01:20:54;22.10;45.80
12156;DHT22;6141;49.092;8.516;2023-08-12T01:23:24;21.90;46.60
12156;DHT22;6141;49.092;8.516;2023-08-12T01:25:52;22.20;46.30
12156;DHT22;6141;49.092;8.516;2023-08-12T01:28:21;22.00;46.60
12156;DHT22;6141;49.092;8.516;2023-08-12T01:30:55;22.30;45.50
12156;DHT22;6141;49.092;8.516;2023-08-12T01:33:30;22.20;46.90
12156;DHT22;6141;49.092;8.516;2023-08-12T01:36:06;21.80;48.50
12156;DHT22;6141;49.092;8.516;2023-08-12T01:38:40;22.00;47.80
12156;DHT22;6141;49.092;8.516;2023-08-12T01:41:10;22.20;47.20
12156;DHT22;6141;49.092;8.516;2023-08-12T01:43:41;22.30;46.00
12156;DHT22;6141;49.092;8.516;2023-08-12T01:46:10;22.60;44.80
12156;DHT22;6141;49.092;8.516;2023-08-12T01:48:38;22.90;44.70
12156;DHT22;6141;49.092;8.516;2023-08-12T01:51:06;23.20;43.50
12156;DHT22;6141;49.092;8.516;2023-08-12T01:53:34;22.90;44.20
12156;DHT22;6141;49.092;8.516;2023-08-12T01:56:04;23.00;43.50
12156;DHT22;6141;49.092;8.516;2023-08-12T01:58:32;23.00;43.90
12156;DHT22;6141;49.092;8.516;2023-08-12T02:01:00;22.70;44.90
12156;DHT22;6141;49.092;8.516;2023-08-12T02:03:29;22.30;47.30
12156;DHT22;6141;49.092;8.516;2023-08-12T02:05:57;22.40;46.50
12156;DHT22;6141;49.092;8.516;2023-08-12T02:08:25;22.50;46.00
12156;DHT22;6141;49.092;8.516;2023-08-12T02:10:54;22.50;45.80
12156;DHT22;6141;49.092;8.516;2023-08-12T02:13:23;22.80;45.00
12156;DHT22;6141;49.092;8.516;2023-08-12T02:15:51;22.30;48.10
12156;DHT22;6141;49.092;8.516;2023-08-12T02:18:22;21.90;50.40
12156;DHT22;6141;49.092;8.516;2023-08-12T02:20:50;21.80;51.50
12156;DHT22;6141;49.092;8.516;2023-08-12T02:23:18;21.70;52.30
12156;DHT22;6141;49.092;8.516;2023-08-12T02:25:47;21.70;51.30
12156;DHT22;6141;49.092;8.516;2023-08-12T02:28:15;22.00;50.20
12156;DHT22;6141;49.092;8.516;2023-08-12T02:30:44;22.30;47.90
12156;DHT22;6141;49.092;8.516;2023-08-12T02:33:12;22.40;48.20
12156;DHT22;6141;49.092;8.516;2023-08-12T02:35:40;22.50;48.00
12156;DHT22;6141;49.092;8.516;2023-08-12T02:38:09;22.50;47.30
12156;DHT22;6141;49.092;8.516;2023-08-12T02:40:37;22.60;47.00
12156;DHT22;6141;49.092;8.516;2023-08-12T02:43:05;22.80;45.00
12156;DHT22;6141;49.092;8.516;2023-08-12T02:45:33;23.00;44.10
12156;DHT22;6141;49.092;8.516;2023-08-12T02:48:04;23.30;43.20
12156;DHT22;6141;49.092;8.516;2023-08-12T02:50:32;23.30;43.20
12156;DHT22;6141;49.092;8.516;2023-08-12T02:53:00;23.30;43.00
12156;DHT22;6141;49.092;8.516;2023-08-12T02:55:28;23.30;42.20
12156;DHT22;6141;49.092;8.516;2023-08-12T02:57:59;23.40;41.30
12156;DHT22;6141;49.092;8.516;2023-08-12T03:00:27;23.50;41.70
12156;DHT22;6141;49.092;8.516;2023-08-12T03:02:55;23.20;43.30
12156;DHT22;6141;49.092;8.516;2023-08-12T03:05:25;22.70;44.90
12156;DHT22;6141;49.092;8.516;2023-08-12T03:07:53;22.90;43.30
12156;DHT22;6141;49.092;8.516;2023-08-12T03:10:21;23.20;43.20
12156;DHT22;6141;49.092;8.516;2023-08-12T03:12:49;22.90;44.60
12156;DHT22;6141;49.092;8.516;2023-08-12T03:15:19;22.60;44.80
12156;DHT22;6141;49.092;8.516;2023-08-12T03:17:47;22.60;44.80
12156;DHT22;6141;49.092;8.516;2023-08-12T03:20:16;22.70;44.90
12156;DHT22;6141;49.092;8.516;2023-08-12T03:22:46;22.90;44.20
12156;DHT22;6141;49.092;8.516;2023-08-12T03:25:14;22.90;44.40
12156;DHT22;6141;49.092;8.516;2023-08-12T03:27:45;22.80;45.00
12156;DHT22;6141;49.092;8.516;2023-08-12T03:30:14;22.60;44.80
12156;DHT22;6141;49.092;8.516;2023-08-12T03:32:43;22.60;44.80
12156;DHT22;6141;49.092;8.516;2023-08-12T03:35:11;22.50;46.10
12156;DHT22;6141;49.092;8.516;2023-08-12T03:37:40;22.40;46.00
12156;DHT22;6141;49.092;8.516;2023-08-12T03:40:10;22.60;44.80
12156;DHT22;6141;49.092;8.516;2023-08-12T03:42:39;22.80;44.10
12156;DHT22;6141;49.092;8.516;2023-08-12T03:45:08;23.00;43.30
12156;DHT22;6141;49.092;8.516;2023-08-12T03:47:36;23.00;42.80
12156;DHT22;6141;49.092;8.516;2023-08-12T03:50:06;22.70;46.20
12156;DHT22;6141;49.092;8.516;2023-08-12T03:52:34;22.30;47.00
12156;DHT22;6141;49.092;8.516;2023-08-12T03:55:02;22.20;47.60
12156;DHT22;6141;49.092;8.516;2023-08-12T03:57:33;22.30;47.50
12156;DHT22;6141;49.092;8.516;2023-08-12T04:00:02;22.30;48.20
12156;DHT22;6141;49.092;8.516;2023-08-12T04:02:40;22.40;46.80
12156;DHT22;6141;49.092;8.516;2023-08-12T04:05:09;22.60;45.90
12156;DHT22;6141;49.092;8.516;2023-08-12T04:07:37;22.70;46.20
12156;DHT22;6141;49.092;8.516;2023-08-12T04:10:06;22.50;47.40
12156;DHT22;6141;49.092;8.516;2023-08-12T04:12:36;22.40;48.20
12156;DHT22;6141;49.092;8.516;2023-08-12T04:17:42;22.40;48.10
12156;DHT22;6141;49.092;8.516;2023-08-12T04:20:10;22.40;48.00
12156;DHT22;6141;49.092;8.516;2023-08-12T04:22:38;22.60;47.70
12156;DHT22;6141;49.092;8.516;2023-08-12T04:25:07;22.70;47.50
12156;DHT22;6141;49.092;8.516;2023-08-12T04:27:37;22.70;47.70
12156;DHT22;6141;49.092;8.516;2023-08-12T04:30:06;22.80;47.40
12156;DHT22;6141;49.092;8.516;2023-08-12T04:32:34;22.70;46.90
12156;DHT22;6141;49.092;8.516;2023-08-12T04:35:04;22.80;45.50
12156;DHT22;6141;49.092;8.516;2023-08-12T04:37:35;23.10;44.90
12156;DHT22;6141;49.092;8.516;2023-08-12T04:40:06;23.30;43.40
12156;DHT22;6141;49.092;8.516;2023-08-12T04:42:36;23.40;44.50
12156;DHT22;6141;49.092;8.516;2023-08-12T04:45:08;23.50;43.10
12156;DHT22;6141;49.092;8.516;2023-08-12T04:47:36;23.60;43.50
12156;DHT22;6141;49.092;8.516;2023-08-12T04:50:05;23.70;42.80
12156;DHT22;6141;49.092;8.516;2023-08-12T04:52:33;23.70;42.80
12156;DHT22;6141;49.092;8.516;2023-08-12T04:55:01;23.80;43.30
12156;DHT22;6141;49.092;8.516;2023-08-12T04:57:31;23.70;42.80
12156;DHT22;6141;49.092;8.516;2023-08-12T05:00:01;23.70;41.90
12156;DHT22;6141;49.092;8.516;2023-08-12T05:02:29;23.80;41.50
12156;DHT22;6141;49.092;8.516;2023-08-12T05:04:58;23.90;42.30
12156;DHT22;6141;49.092;8.516;2023-08-12T05:07:26;23.40;44.60
12156;DHT22;6141;49.092;8.516;2023-08-12T05:09:55;23.00;46.60
12156;DHT22;6141;49.092;8.516;2023-08-12T05:12:24;22.90;46.00
12156;DHT22;6141;49.092;8.516;2023-08-12T05:14:52;23.30;45.50
12156;DHT22;6141;49.092;8.516;2023-08-12T05:17:21;23.40;45.60
12156;DHT22;6141;49.092;8.516;2023-08-12T05:19:50;23.00;46.80
12156;DHT22;6141;49.092;8.516;2023-08-12T05:22:18;22.70;48.90
12156;DHT22;6141;49.092;8.516;2023-08-12T05:24:46;22.70;48.20
12156;DHT22;6141;49.092;8.516;2023-08-12T05:27:15;23.00;46.30
12156;DHT22;6141;49.092;8.516;2023-08-12T05:29:43;23.20;45.40
12156;DHT22;6141;49.092;8.516;2023-08-12T05:32:11;23.30;45.50
12156;DHT22;6141;49.092;8.516;2023-08-12T05:34:41;23.10;45.70
12156;DHT22;6141;49.092;8.516;2023-08-12T05:37:09;23.30;45.50
12156;DHT22;6141;49.092;8.516;2023-08-12T05:39:37;23.50;44.80
12156;DHT22;6141;49.092;8.516;2023-08-12T05:42:05;23.00;46.40
12156;DHT22;6141;49.092;8.516;2023-08-12T05:44:34;22.90;46.50
12156;DHT22;6141;49.092;8.516;2023-08-12T05:47:02;23.20;45.90
12156;DHT22;6141;49.092;8.516;2023-08-12T05:49:30;23.40;46.10
12156;DHT22;6141;49.092;8.516;2023-08-12T05:51:59;23.50;45.70
12156;DHT22;6141;49.092;8.516;2023-08-12T05:54:27;23.50;45.70
12156;DHT22;6141;49.092;8.516;2023-08-12T05:56:55;23.50;45.50
12156;DHT22;6141;49.092;8.516;2023-08-12T05:59:23;23.70;46.00
12156;DHT22;6141;49.092;8.516;2023-08-12T06:01:51;23.60;45.80
12156;DHT22;6141;49.092;8.516;2023-08-12T06:04:19;23.20;47.40
12156;DHT22;6141;49.092;8.516;2023-08-12T06:06:47;23.40;47.50
12156;DHT22;6141;49.092;8.516;2023-08-12T06:09:17;23.70;47.10
12156;DHT22;6141;49.092;8.516;2023-08-12T06:11:45;23.60;45.80
12156;DHT22;6141;49.092;8.516;2023-08-12T06:14:13;23.80;47.10
12156;DHT22;6141;49.092;8.516;2023-08-12T06:16:41;23.60;47.80
12156;DHT22;6141;49.092;8.516;2023-08-12T06:19:09;23.30;49.00
12156;DHT22;6141;49.092;8.516;2023-08-12T06:21:38;23.30;48.70
12156;DHT22;6141;49.092;8.516;2023-08-12T06:24:06;23.30;48.70
12156;DHT22;6141;49.092;8.516;2023-08-12T06:26:36;23.40;48.70
12156;DHT22;6141;49.092;8.516;2023-08-12T06:29:04;23.60;47.80
12156;DHT22;6141;49.092;8.516;2023-08-12T06:31:32;23.70;48.50
12156;DHT22;6141;49.092;8.516;2023-08-12T06:34:00;23.50;49.90
12156;DHT22;6141;49.092;8.516;2023-08-12T06:36:28;23.30;50.80
12156;DHT22;6141;49.092;8.516;2023-08-12T06:38:56;23.70;49.80
12156;DHT22;6141;49.092;8.516;2023-08-12T06:41:25;23.90;47.10
12156;DHT22;6141;49.092;8.516;2023-08-12T06:43:54;23.90;45.00
12156;DHT22;6141;49.092;8.516;2023-08-12T06:46:22;23.80;46.00
12156;DHT22;6141;49.092;8.516;2023-08-12T06:48:50;23.70;46.40
12156;DHT22;6141;49.092;8.516;2023-08-12T06:51:18;23.40;45.90
12156;DHT22;6141;49.092;8.516;2023-08-12T06:53:46;23.30;47.40
12156;DHT22;6141;49.092;8.516;2023-08-12T06:56:15;23.40;46.90
12156;DHT22;6141;49.092;8.516;2023-08-12T06:58:43;23.60;46.00
12156;DHT22;6141;49.092;8.516;2023-08-12T07:01:13;23.70;47.50
12156;DHT22;6141;49.092;8.516;2023-08-12T07:03:41;23.50;47.20
12156;DHT22;6141;49.092;8.516;2023-08-12T07:06:09;23.60;46.60
12156;DHT22;6141;49.092;8.516;2023-08-12T07:08:38;23.70;46.80
12156;DHT22;6141;49.092;8.516;2023-08-12T07:11:06;23.70;46.60
12156;DHT22;6141;49.092;8.516;2023-08-12T07:13:33;23.60;45.80
12156;DHT22;6141;49.092;8.516;2023-08-12T07:16:02;23.80;46.00
12156;DHT22;6141;49.092;8.516;2023-08-12T07:18:31;23.70;48.20
12156;DHT22;6141;49.092;8.516;2023-08-12T07:20:59;23.70;48.00
12156;DHT22;6141;49.092;8.516;2023-08-12T07:23:27;23.90;46.90
12156;DHT22;6141;49.092;8.516;2023-08-12T07:25:55;23.90;46.80
12156;DHT22;6141;49.092;8.516;2023-08-12T07:28:24;23.80;46.00
12156;DHT22;6141;49.092;8.516;2023-08-12T07:30:52;23.70;47.30
12156;DHT22;6141;49.092;8.516;2023-08-12T07:33:20;23.80;47.10
12156;DHT22;6141;49.092;8.516;2023-08-12T07:35:50;24.10;47.90
12156;DHT22;6141;49.092;8.516;2023-08-12T07:38:17;24.10;47.10
12156;DHT22;6141;49.092;8.516;2023-08-12T07:40:46;24.20;46.40
12156;DHT22;6141;49.092;8.516;2023-08-12T07:43:14;24.50;46.40
12156;DHT22;6141;49.092;8.516;2023-08-12T07:45:42;24.50;45.50
12156;DHT22;6141;49.092;8.516;2023-08-12T07:48:17;24.20;46.40
12156;DHT22;6141;49.092;8.516;2023-08-12T07:50:45;24.10;46.30
12156;DHT22;6141;49.092;8.516;2023-08-12T07:53:17;24.20;46.40
12156;DHT22;6141;49.092;8.516;2023-08-12T07:55:45;24.40;45.50
12156;DHT22;6141;49.092;8.516;2023-08-12T07:58:13;24.50;45.50
12156;DHT22;6141;49.092;8.516;2023-08-12T08:00:41;24.70;45.60
12156;DHT22;6141;49.092;8.516;2023-08-12T08:03:09;24.80;45.50
12156;DHT22;6141;49.092;8.516;2023-08-12T08:05:40;24.90;44.10
12156;DHT22;6141;49.092;8.516;2023-08-12T08:08:08;25.10;43.60
12156;DHT22;6141;49.092;8.516;2023-08-12T08:10:38;24.90;45.50
12156;DHT22;6141;49.092;8.516;2023-08-12T08:13:06;25.00;45.20
12156;DHT22;6141;49.092;8.516;2023-08-12T08:15:34;25.20;41.80
12156;DHT22;6141;49.092;8.516;2023-08-12T08:18:03;25.40;39.00
12156;DHT22;6141;49.092;8.516;2023-08-12T08:20:32;25.60;41.20
12156;DHT22;6141;49.092;8.516;2023-08-12T08:23:02;25.80;39.60
12156;DHT22;6141;49.092;8.516;2023-08-12T08:25:30;25.70;41.00
12156;DHT22;6141;49.092;8.516;2023-08-12T08:28:00;26.00;41.50
12156;DHT22;6141;49.092;8.516;2023-08-12T08:30:28;26.20;39.90
12156;DHT22;6141;49.092;8.516;2023-08-12T08:32:56;26.50;39.20
12156;DHT22;6141;49.092;8.516;2023-08-12T08:35:24;26.70;37.80
12156;DHT22;6141;49.092;8.516;2023-08-12T08:37:53;26.70;36.20
12156;DHT22;6141;49.092;8.516;2023-08-12T08:40:21;27.00;36.50
12156;DHT22;6141;49.092;8.516;2023-08-12T08:42:52;26.80;34.80
12156;DHT22;6141;49.092;8.516;2023-08-12T08:45:22;26.50;35.00
12156;DHT22;6141;49.092;8.516;2023-08-12T08:47:51;26.30;37.10
12156;DHT22;6141;49.092;8.516;2023-08-12T08:50:20;26.60;36.30
12156;DHT22;6141;49.092;8.516;2023-08-12T08:52:50;26.60;37.00
12156;DHT22;6141;49.092;8.516;2023-08-12T08:55:19;26.90;35.50
12156;DHT22;6141;49.092;8.516;2023-08-12T08:57:49;27.00;34.80
12156;DHT22;6141;49.092;8.516;2023-08-12T09:00:18;27.00;33.40
12156;DHT22;6141;49.092;8.516;2023-08-12T09:02:48;27.40;34.30
12156;DHT22;6141;49.092;8.516;2023-08-12T09:05:17;27.40;32.00
12156;DHT22;6141;49.092;8.516;2023-08-12T09:07:47;27.60;32.60
12156;DHT22;6141;49.092;8.516;2023-08-12T09:10:17;27.80;31.30
12156;DHT22;6141;49.092;8.516;2023-08-12T09:12:48;27.70;30.90
12156;DHT22;6141;49.092;8.516;2023-08-12T09:15:19;27.60;29.60
12156;DHT22;6141;49.092;8.516;2023-08-12T09:17:48;27.80;30.80
12156;DHT22;6141;49.092;8.516;2023-08-12T09:20:16;27.90;30.10
12156;DHT22;6141;49.092;8.516;2023-08-12T09:22:45;27.80;31.60
12156;DHT22;6141;49.092;8.516;2023-08-12T09:25:13;27.70;29.90
12156;DHT22;6141;49.092;8.516;2023-08-12T09:27:41;27.90;29.80
12156;DHT22;6141;49.092;8.516;2023-08-12T09:30:09;28.00;30.90
12156;DHT22;6141;49.092;8.516;2023-08-12T09:32:40;27.90;29.80
12156;DHT22;6141;49.092;8.516;2023-08-12T09:35:15;27.90;29.80
12156;DHT22;6141;49.092;8.516;2023-08-12T09:37:45;28.10;30.00
12156;DHT22;6141;49.092;8.516;2023-08-12T09:40:13;28.30;30.00
12156;DHT22;6141;49.092;8.516;2023-08-12T09:42:45;28.20;28.90
12156;DHT22;6141;49.092;8.516;2023-08-12T09:45:14;28.40;30.10
12156;DHT22;6141;49.092;8.516;2023-08-12T09:47:42;28.60;28.40
12156;DHT22;6141;49.092;8.516;2023-08-12T09:50:12;28.40;28.90
12156;DHT22;6141;49.092;8.516;2023-08-12T09:52:41;28.10;29.90
12156;DHT22;6141;49.092;8.516;2023-08-12T09:55:11;28.10;30.60
12156;DHT22;6141;49.092;8.516;2023-08-12T09:57:42;28.20;30.00
12156;DHT22;6141;49.092;8.516;2023-08-12T10:00:12;28.40;28.80
12156;DHT22;6141;49.092;8.516;2023-08-12T10:02:44;28.60;30.20
12156;DHT22;6141;49.092;8.516;2023-08-12T10:05:19;28.80;28.80
12156;DHT22;6141;49.092;8.516;2023-08-12T10:07:48;29.00;28.90
12156;DHT22;6141;49.092;8.516;2023-08-12T10:10:16;28.80;27.90
12156;DHT22;6141;49.092;8.516;2023-08-12T10:12:45;28.80;30.30
12156;DHT22;6141;49.092;8.516;2023-08-12T10:15:13;28.80;30.30
12156;DHT22;6141;49.092;8.516;2023-08-12T10:17:42;28.90;30.40
12156;DHT22;6141;49.092;8.516;2023-08-12T10:20:19;29.00;30.50
12156;DHT22;6141;49.092;8.516;2023-08-12T10:22:49;28.80;29.20
12156;DHT22;6141;49.092;8.516;2023-08-12T10:25:18;28.70;28.50
12156;DHT22;6141;49.092;8.516;2023-08-12T10:27:48;28.90;28.40
12156;DHT22;6141;49.092;8.516;2023-08-12T10:30:17;29.00;28.20
12156;DHT22;6141;49.092;8.516;2023-08-12T10:32:45;29.10;27.50
12156;DHT22;6141;49.092;8.516;2023-08-12T10:35:16;28.90;27.90
12156;DHT22;6141;49.092;8.516;2023-08-12T10:37:48;28.90;28.70
12156;DHT22;6141;49.092;8.516;2023-08-12T10:40:21;29.10;28.10
12156;DHT22;6141;49.092;8.516;2023-08-12T10:42:50;29.10;26.60
12156;DHT22;6141;49.092;8.516;2023-08-12T10:45:19;29.20;27.10
12156;DHT22;6141;49.092;8.516;2023-08-12T10:47:53;29.20;27.40
12156;DHT22;6141;49.092;8.516;2023-08-12T10:50:43;29.30;27.50
12156;DHT22;6141;49.092;8.516;2023-08-12T10:53:26;29.10;27.20
12156;DHT22;6141;49.092;8.516;2023-08-12T10:55:59;28.90;26.50
12156;DHT22;6141;49.092;8.516;2023-08-12T10:58:28;28.60;27.20
12156;DHT22;6141;49.092;8.516;2023-08-12T11:00:57;28.30;27.50
12156;DHT22;6141;49.092;8.516;2023-08-12T11:03:25;28.00;28.70
12156;DHT22;6141;49.092;8.516;2023-08-12T11:05:55;27.70;29.00
12156;DHT22;6141;49.092;8.516;2023-08-12T11:08:27;27.50;29.60
12156;DHT22;6141;49.092;8.516;2023-08-12T11:10:56;27.60;29.60
12156;DHT22;6141;49.092;8.516;2023-08-12T11:13:27;27.50;29.60
12156;DHT22;6141;49.092;8.516;2023-08-12T11:16:06;27.50;31.50
12156;DHT22;6141;49.092;8.516;2023-08-12T11:18:35;27.50;33.40
12156;DHT22;6141;49.092;8.516;2023-08-12T11:21:05;27.70;36.80
12156;DHT22;6141;49.092;8.516;2023-08-12T11:23:33;27.50;38.00
12156;DHT22;6141;49.092;8.516;2023-08-12T11:26:03;26.90;41.00
12156;DHT22;6141;49.092;8.516;2023-08-12T11:28:31;26.90;44.00
12156;DHT22;6141;49.092;8.516;2023-08-12T11:30:59;26.70;45.40
12156;DHT22;6141;49.092;8.516;2023-08-12T11:33:29;26.50;47.40
12156;DHT22;6141;49.092;8.516;2023-08-12T11:35:59;26.50;48.40
12156;DHT22;6141;49.092;8.516;2023-08-12T11:38:28;26.70;49.10
12156;DHT22;6141;49.092;8.516;2023-08-12T11:40:56;26.80;48.50
12156;DHT22;6141;49.092;8.516;2023-08-12T11:43:24;26.60;51.90
12156;DHT22;6141;49.092;8.516;2023-08-12T11:45:55;26.60;52.50
12156;DHT22;6141;49.092;8.516;2023-08-12T11:48:23;26.50;49.00
12156;DHT22;6141;49.092;8.516;2023-08-12T11:50:52;26.40;50.10
12156;DHT22;6141;49.092;8.516;2023-08-12T11:53:29;26.40;50.40
12156;DHT22;6141;49.092;8.516;2023-08-12T11:55:57;26.30;51.10
12156;DHT22;6141;49.092;8.516;2023-08-12T11:58:25;26.50;51.30
12156;DHT22;6141;49.092;8.516;2023-08-12T12:01:10;26.70;52.80
12156;DHT22;6141;49.092;8.516;2023-08-12T12:03:38;26.70;49.60
12156;DHT22;6141;49.092;8.516;2023-08-12T12:06:06;26.80;49.60
12156;DHT22;6141;49.092;8.516;2023-08-12T12:08:36;26.80;48.00
12156;DHT22;6141;49.092;8.516;2023-08-12T12:11:05;26.60;49.70
12156;DHT22;6141;49.092;8.516;2023-08-12T12:13:34;26.90;49.30
12156;DHT22;6141;49.092;8.516;2023-08-12T12:16:03;26.80;52.00
12156;DHT22;6141;49.092;8.516;2023-08-12T12:18:32;27.10;52.10
12156;DHT22;6141;49.092;8.516;2023-08-12T12:21:00;27.40;49.10
12156;DHT22;6141;49.092;8.516;2023-08-12T12:23:28;27.50;44.80
12156;DHT22;6141;49.092;8.516;2023-08-12T12:25:59;27.60;48.20
12156;DHT22;6141;49.092;8.516;2023-08-12T12:28:28;28.00;45.20
12156;DHT22;6141;49.092;8.516;2023-08-12T12:30:57;28.00;43.20
12156;DHT22;6141;49.092;8.516;2023-08-12T12:33:25;28.00;38.20
12156;DHT22;6141;49.092;8.516;2023-08-12T12:35:54;28.10;38.80
12156;DHT22;6141;49.092;8.516;2023-08-12T12:38:27;28.20;37.70
12156;DHT22;6141;49.092;8.516;2023-08-12T12:40:55;27.80;37.00
12156;DHT22;6141;49.092;8.516;2023-08-12T12:43:25;27.80;38.50
12156;DHT22;6141;49.092;8.516;2023-08-12T12:45:53;28.00;40.20
12156;DHT22;6141;49.092;8.516;2023-08-12T12:48:21;28.10;40.10
12156;DHT22;6141;49.092;8.516;2023-08-12T12:50:49;28.10;35.70
12156;DHT22;6141;49.092;8.516;2023-08-12T12:53:17;28.10;32.70
12156;DHT22;6141;49.092;8.516;2023-08-12T12:55:45;28.20;34.40
12156;DHT22;6141;49.092;8.516;2023-08-12T12:58:14;28.40;33.50
12156;DHT22;6141;49.092;8.516;2023-08-12T13:00:44;28.60;33.80
12156;DHT22;6141;49.092;8.516;2023-08-12T13:03:12;28.70;33.60
12156;DHT22;6141;49.092;8.516;2023-08-12T13:05:40;28.80;31.60
12156;DHT22;6141;49.092;8.516;2023-08-12T13:08:08;28.80;31.60
12156;DHT22;6141;49.092;8.516;2023-08-12T13:10:36;28.90;31.20
12156;DHT22;6141;49.092;8.516;2023-08-12T13:13:05;29.00;28.90
12156;DHT22;6141;49.092;8.516;2023-08-12T13:15:33;29.10;29.90
12156;DHT22;6141;49.092;8.516;2023-08-12T13:18:03;29.30;30.70
12156;DHT22;6141;49.092;8.516;2023-08-12T13:20:31;29.10;29.30
12156;DHT22;6141;49.092;8.516;2023-08-12T13:22:59;29.10;30.30
12156;DHT22;6141;49.092;8.516;2023-08-12T13:25:28;29.00;30.30
12156;DHT22;6141;49.092;8.516;2023-08-12T13:27:57;28.90;29.70
12156;DHT22;6141;49.092;8.516;2023-08-12T13:30:25;28.80;30.30
12156;DHT22;6141;49.092;8.516;2023-08-12T13:32:54;28.90;30.20
12156;DHT22;6141;49.092;8.516;2023-08-12T13:35:26;29.00;29.70
12156;DHT22;6141;49.092;8.516;2023-08-12T13:37:54;28.90;30.40
12156;DHT22;6141;49.092;8.516;2023-08-12T13:40:23;28.80;32.10
12156;DHT22;6141;49.092;8.516;2023-08-12T13:42:51;28.70;30.20
12156;DHT22;6141;49.092;8.516;2023-08-12T13:45:19;28.50;30.10
12156;DHT22;6141;49.092;8.516;2023-08-12T13:47:47;28.40;30.00
12156;DHT22;6141;49.092;8.516;2023-08-12T13:50:17;28.40;30.80
12156;DHT22;6141;49.092;8.516;2023-08-12T13:52:47;28.40;30.00
12156;DHT22;6141;49.092;8.516;2023-08-12T13:55:16;28.50;31.60
12156;DHT22;6141;49.092;8.516;2023-08-12T13:57:44;28.60;31.60
12156;DHT22;6141;49.092;8.516;2023-08-12T14:00:12;28.80;29.10
12156;DHT22;6141;49.092;8.516;2023-08-12T14:02:42;28.50;28.90
12156;DHT22;6141;49.092;8.516;2023-08-12T14:05:11;28.40;30.00
12156;DHT22;6141;49.092;8.516;2023-08-12T14:07:39;28.40;29.70
12156;DHT22;6141;49.092;8.516;2023-08-12T14:10:09;28.30;30.00
12156;DHT22;6141;49.092;8.516;2023-08-12T14:12:37;28.20;30.00
12156;DHT22;6141;49.092;8.516;2023-08-12T14:15:06;28.30;30.00
12156;DHT22;6141;49.092;8.516;2023-08-12T14:17:34;28.30;30.10
12156;DHT22;6141;49.092;8.516;2023-08-12T14:20:02;28.20;30.00
12156;DHT22;6141;49.092;8.516;2023-08-12T14:22:34;28.20;30.00
12156;DHT22;6141;49.092;8.516;2023-08-12T14:25:03;28.20;30.00
12156;DHT22;6141;49.092;8.516;2023-08-12T14:27:33;28.20;31.10
12156;DHT22;6141;49.092;8.516;2023-08-12T14:30:01;28.20;32.20
12156;DHT22;6141;49.092;8.516;2023-08-12T14:32:29;28.20;32.60
12156;DHT22;6141;49.092;8.516;2023-08-12T14:34:58;28.10;32.40
12156;DHT22;6141;49.092;8.516;2023-08-12T14:37:26;28.00;33.00
12156;DHT22;6141;49.092;8.516;2023-08-12T14:39:56;28.00;33.20
12156;DHT22;6141;49.092;8.516;2023-08-12T14:42:24;27.80;33.60
12156;DHT22;6141;49.092;8.516;2023-08-12T14:44:54;27.80;34.40
12156;DHT22;6141;49.092;8.516;2023-08-12T14:47:22;27.70;35.50
12156;DHT22;6141;49.092;8.516;2023-08-12T14:49:50;27.70;39.60
12156;DHT22;6141;49.092;8.516;2023-08-12T14:52:20;27.60;44.60
12156;DHT22;6141;49.092;8.516;2023-08-12T14:54:49;27.20;49.30
12156;DHT22;6141;49.092;8.516;2023-08-12T14:57:17;27.00;50.50
12156;DHT22;6141;49.092;8.516;2023-08-12T14:59:45;26.80;54.10
12156;DHT22;6141;49.092;8.516;2023-08-12T15:02:20;26.80;55.00
12156;DHT22;6141;49.092;8.516;2023-08-12T15:04:49;26.80;55.00
12156;DHT22;6141;49.092;8.516;2023-08-12T15:07:17;26.50;56.30
12156;DHT22;6141;49.092;8.516;2023-08-12T15:09:47;26.30;58.20
12156;DHT22;6141;49.092;8.516;2023-08-12T15:12:15;26.50;58.50
12156;DHT22;6141;49.092;8.516;2023-08-12T15:14:43;26.70;55.60
12156;DHT22;6141;49.092;8.516;2023-08-12T15:17:11;26.90;54.30
12156;DHT22;6141;49.092;8.516;2023-08-12T15:19:40;27.00;55.20
12156;DHT22;6141;49.092;8.516;2023-08-12T15:22:09;27.00;56.40
12156;DHT22;6141;49.092;8.516;2023-08-12T15:24:37;26.90;55.10
12156;DHT22;6141;49.092;8.516;2023-08-12T15:27:05;27.10;53.30
12156;DHT22;6141;49.092;8.516;2023-08-12T15:29:33;27.20;51.50
12156;DHT22;6141;49.092;8.516;2023-08-12T15:32:01;27.30;52.00
12156;DHT22;6141;49.092;8.516;2023-08-12T15:34:30;27.20;51.50
12156;DHT22;6141;49.092;8.516;2023-08-12T15:36:59;27.10;52.50
12156;DHT22;6141;49.092;8.516;2023-08-12T15:39:28;26.70;51.10
12156;DHT22;6141;49.092;8.516;2023-08-12T15:41:56;26.50;55.10
12156;DHT22;6141;49.092;8.516;2023-08-12T15:44:24;26.40;54.70
12156;DHT22;6141;49.092;8.516;2023-08-12T15:46:52;26.20;54.60
12156;DHT22;6141;49.092;8.516;2023-08-12T15:49:20;26.30;53.40
12156;DHT22;6141;49.092;8.516;2023-08-12T15:51:48;26.40;53.30
12156;DHT22;6141;49.092;8.516;2023-08-12T15:54:17;26.20;54.50
12156;DHT22;6141;49.092;8.516;2023-08-12T15:56:45;25.80;55.20
12156;DHT22;6141;49.092;8.516;2023-08-12T15:59:14;25.60;56.40